sensor_id;sensor_type;location;lat;lon;timestamp;temperature;humidity
26336;DHT22;14047;50.936;4.654;2023-07-29T00:01:14;22.00;99.90
26336;DHT22;14047;50.936;4.654;2023-07-29T00:03:40;21.90;99.90
26336;DHT22;14047;50.936;4.654;2023-07-29T00:06:06;21.90;99.90
26336;DHT22;14047;50.936;4.654;2023-07-29T00:08:32;21.90;99.90
26336;DHT22;14047;50.936;4.654;2023-07-29T00:10:58;21.90;99.90
26336;DHT22;14047;50.936;4.654;2023-07-29T00:13:24;21.80;99.90
26336;DHT22;14047;50.936;4.654;2023-07-29T00:15:53;21.80;99.90
26336;DHT22;14047;50.936;4.654;2023-07-29T00:18:19;21.80;99.90
26336;DHT22;14047;50.936;4.654;2023-07-29T00:20:45;21.70;99.90
26336;DHT22;14047;50.936;4.654;2023-07-29T00:23:11;21.60;99.90
26336;DHT22;14047;50.936;4.654;2023-07-29T00:25:37;21.60;99.90
26336;DHT22;14047;50.936;4.654;2023-07-29T00:28:03;21.50;99.90
26336;DHT22;14047;50.936;4.654;2023-07-29T00:30:29;21.50;99.90
26336;DHT22;14047;50.936;4.654;2023-07-29T00:32:55;21.40;99.90
26336;DHT22;14047;50.936;4.654;2023-07-29T00:35:21;21.30;99.90
26336;DHT22;14047;50.936;4.654;2023-07-29T00:37:47;21.20;99.90
26336;DHT22;14047;50.936;4.654;2023-07-29T00:40:18;21.10;99.90
26336;DHT22;14047;50.936;4.654;2023-07-29T00:42:44;21.10;99.90
26336;DHT22;14047;50.936;4.654;2023-07-29T00:45:11;20.60;99.90
26336;DHT22;14047;50.936;4.654;2023-07-29T00:47:37;20.20;99.90
26336;DHT22;14047;50.936;4.654;2023-07-29T00:50:04;19.90;99.90
26336;DHT22;14047;50.936;4.654;2023-07-29T00:52:31;19.70;99.90
26336;DHT22;14047;50.936;4.654;2023-07-29T00:54:57;19.70;99.90
26336;DHT22;14047;50.936;4.654;2023-07-29T00:57:23;19.60;99.90
26336;DHT22;14047;50.936;4.654;2023-07-29T00:59:51;19.60;99.90
26336;DHT22;14047;50.936;4.654;2023-07-29T01:02:18;19.50;99.90
26336;DHT22;14047;50.936;4.654;2023-07-29T01:04:43;19.40;99.90
26336;DHT22;14047;50.936;4.654;2023-07-29T01:07:32;19.40;99.90
26336;DHT22;14047;50.936;4.654;2023-07-29T01:10:15;19.40;99.90
26336;DHT22;14047;50.936;4.654;2023-07-29T01:12:51;19.40;99.90
26336;DHT22;14047;50.936;4.654;2023-07-29T01:15:26;19.40;99.90
26336;DHT22;14047;50.936;4.654;2023-07-29T01:18:23;19.40;99.90
26336;DHT22;14047;50.936;4.654;2023-07-29T01:20:53;19.40;99.90
26336;DHT22;14047;50.936;4.654;2023-07-29T01:23:30;19.30;99.90
26336;DHT22;14047;50.936;4.654;2023-07-29T01:25:58;19.40;99.90
26336;DHT22;14047;50.936;4.654;2023-07-29T01:28:25;19.50;99.90
26336;DHT22;14047;50.936;4.654;2023-07-29T01:31:06;19.50;99.90
26336;DHT22;14047;50.936;4.654;2023-07-29T01:33:44;19.50;99.90
26336;DHT22;14047;50.936;4.654;2023-07-29T01:36:20;19.50;99.90
26336;DHT22;14047;50.936;4.654;2023-07-29T01:38:49;19.60;99.90
26336;DHT22;14047;50.936;4.654;2023-07-29T01:41:17;19.60;99.90
26336;DHT22;14047;50.936;4.654;2023-07-29T01:43:45;19.70;99.90
26336;DHT22;14047;50.936;4.654;2023-07-29T01:46:13;19.70;99.90
26336;DHT22;14047;50.936;4.654;2023-07-29T01:48:39;19.70;99.90
26336;DHT22;14047;50.936;4.654;2023-07-29T01:51:06;19.70;99.90
26336;DHT22;14047;50.936;4.654;2023-07-29T01:53:33;19.70;99.90
26336;DHT22;14047;50.936;4.654;2023-07-29T01:55:59;19.60;99.90
26336;DHT22;14047;50.936;4.654;2023-07-29T01:58:25;19.60;99.90
26336;DHT22;14047;50.936;4.654;2023-07-29T02:00:51;19.50;99.90
26336;DHT22;14047;50.936;4.654;2023-07-29T02:03:17;19.40;99.90
26336;DHT22;14047;50.936;4.654;2023-07-29T02:05:44;19.40;99.90
26336;DHT22;14047;50.936;4.654;2023-07-29T02:08:11;19.50;99.90
26336;DHT22;14047;50.936;4.654;2023-07-29T02:10:37;19.50;99.90
26336;DHT22;14047;50.936;4.654;2023-07-29T02:13:04;19.50;99.90
26336;DHT22;14047;50.936;4.654;2023-07-29T02:15:30;19.50;99.90
26336;DHT22;14047;50.936;4.654;2023-07-29T02:17:56;19.50;99.90
26336;DHT22;14047;50.936;4.654;2023-07-29T02:20:22;19.50;99.90
26336;DHT22;14047;50.936;4.654;2023-07-29T02:22:49;19.40;99.90
26336;DHT22;14047;50.936;4.654;2023-07-29T02:25:15;19.30;99.90
26336;DHT22;14047;50.936;4.654;2023-07-29T02:27:41;19.30;99.90
26336;DHT22;14047;50.936;4.654;2023-07-29T02:30:08;19.30;99.90
26336;DHT22;14047;50.936;4.654;2023-07-29T02:32:35;19.30;99.90
26336;DHT22;14047;50.936;4.654;2023-07-29T02:35:01;19.40;99.90
26336;DHT22;14047;50.936;4.654;2023-07-29T02:37:27;19.40;99.90
26336;DHT22;14047;50.936;4.654;2023-07-29T02:39:54;19.40;99.90
26336;DHT22;14047;50.936;4.654;2023-07-29T02:42:20;19.40;99.90
26336;DHT22;14047;50.936;4.654;2023-07-29T02:44:45;19.40;99.90
26336;DHT22;14047;50.936;4.654;2023-07-29T02:47:11;19.40;99.90
26336;DHT22;14047;50.936;4.654;2023-07-29T02:49:37;19.30;99.90
26336;DHT22;14047;50.936;4.654;2023-07-29T02:52:04;19.30;99.90
26336;DHT22;14047;50.936;4.654;2023-07-29T02:54:30;19.30;99.90
26336;DHT22;14047;50.936;4.654;2023-07-29T02:56:56;19.40;99.90
26336;DHT22;14047;50.936;4.654;2023-07-29T02:59:22;19.30;99.90
26336;DHT22;14047;50.936;4.654;2023-07-29T03:01:48;19.10;99.90
26336;DHT22;14047;50.936;4.654;2023-07-29T03:04:14;18.90;99.90
26336;DHT22;14047;50.936;4.654;2023-07-29T03:06:40;18.80;99.90
26336;DHT22;14047;50.936;4.654;2023-07-29T03:09:06;18.70;99.90
26336;DHT22;14047;50.936;4.654;2023-07-29T03:11:32;18.80;99.90
26336;DHT22;14047;50.936;4.654;2023-07-29T03:13:58;18.90;99.90
26336;DHT22;14047;50.936;4.654;2023-07-29T03:16:25;18.90;99.90
26336;DHT22;14047;50.936;4.654;2023-07-29T03:18:54;19.00;99.90
26336;DHT22;14047;50.936;4.654;2023-07-29T03:21:20;19.10;99.90
26336;DHT22;14047;50.936;4.654;2023-07-29T03:23:46;19.10;99.90
26336;DHT22;14047;50.936;4.654;2023-07-29T03:26:12;19.10;99.90
26336;DHT22;14047;50.936;4.654;2023-07-29T03:28:41;19.10;99.90
26336;DHT22;14047;50.936;4.654;2023-07-29T03:31:07;19.20;99.90
26336;DHT22;14047;50.936;4.654;2023-07-29T03:33:33;19.20;99.90
26336;DHT22;14047;50.936;4.654;2023-07-29T03:35:59;19.30;99.90
26336;DHT22;14047;50.936;4.654;2023-07-29T03:38:25;19.20;99.90
26336;DHT22;14047;50.936;4.654;2023-07-29T03:40:51;19.00;99.90
26336;DHT22;14047;50.936;4.654;2023-07-29T03:43:17;18.80;99.90
26336;DHT22;14047;50.936;4.654;2023-07-29T03:45:44;18.70;99.90
26336;DHT22;14047;50.936;4.654;2023-07-29T03:48:10;18.70;99.90
26336;DHT22;14047;50.936;4.654;2023-07-29T03:50:37;18.70;99.90
26336;DHT22;14047;50.936;4.654;2023-07-29T03:53:04;18.60;99.90
26336;DHT22;14047;50.936;4.654;2023-07-29T03:55:31;18.40;99.90
26336;DHT22;14047;50.936;4.654;2023-07-29T03:57:57;18.30;99.90
26336;DHT22;14047;50.936;4.654;2023-07-29T04:00:24;18.40;99.90
26336;DHT22;14047;50.936;4.654;2023-07-29T04:02:50;18.50;99.90
26336;DHT22;14047;50.936;4.654;2023-07-29T04:05:17;18.60;99.90
26336;DHT22;14047;50.936;4.654;2023-07-29T04:07:43;18.50;99.90
26336;DHT22;14047;50.936;4.654;2023-07-29T04:10:10;18.40;99.90
26336;DHT22;14047;50.936;4.654;2023-07-29T04:12:37;18.20;99.90
26336;DHT22;14047;50.936;4.654;2023-07-29T04:15:03;18.00;99.90
26336;DHT22;14047;50.936;4.654;2023-07-29T04:17:29;17.90;99.90
26336;DHT22;14047;50.936;4.654;2023-07-29T04:19:55;17.80;99.90
26336;DHT22;14047;50.936;4.654;2023-07-29T04:22:26;17.90;99.90
26336;DHT22;14047;50.936;4.654;2023-07-29T04:24:52;17.90;99.90
26336;DHT22;14047;50.936;4.654;2023-07-29T04:27:19;17.90;99.90
26336;DHT22;14047;50.936;4.654;2023-07-29T04:29:45;17.80;99.90
26336;DHT22;14047;50.936;4.654;2023-07-29T04:32:11;17.70;99.90
26336;DHT22;14047;50.936;4.654;2023-07-29T04:34:37;17.60;99.90
26336;DHT22;14047;50.936;4.654;2023-07-29T04:37:03;17.60;99.90
26336;DHT22;14047;50.936;4.654;2023-07-29T04:39:29;17.50;99.90
26336;DHT22;14047;50.936;4.654;2023-07-29T04:41:55;17.50;99.90
26336;DHT22;14047;50.936;4.654;2023-07-29T04:44:23;17.70;99.90
26336;DHT22;14047;50.936;4.654;2023-07-29T04:46:50;17.70;99.90
26336;DHT22;14047;50.936;4.654;2023-07-29T04:49:16;17.70;99.90
26336;DHT22;14047;50.936;4.654;2023-07-29T04:51:42;17.90;99.90
26336;DHT22;14047;50.936;4.654;2023-07-29T04:54:08;17.90;99.90
26336;DHT22;14047;50.936;4.654;2023-07-29T04:56:34;18.00;99.90
26336;DHT22;14047;50.936;4.654;2023-07-29T04:59:00;18.00;99.90
26336;DHT22;14047;50.936;4.654;2023-07-29T05:01:26;18.20;99.90
26336;DHT22;14047;50.936;4.654;2023-07-29T05:03:52;18.30;99.90
26336;DHT22;14047;50.936;4.654;2023-07-29T05:06:18;18.40;99.90
26336;DHT22;14047;50.936;4.654;2023-07-29T05:08:44;18.50;99.90
26336;DHT22;14047;50.936;4.654;2023-07-29T05:11:10;18.60;99.90
26336;DHT22;14047;50.936;4.654;2023-07-29T05:13:36;18.70;99.90
26336;DHT22;14047;50.936;4.654;2023-07-29T05:16:03;18.90;99.90
26336;DHT22;14047;50.936;4.654;2023-07-29T05:18:29;19.10;99.90
26336;DHT22;14047;50.936;4.654;2023-07-29T05:20:55;19.30;99.90
26336;DHT22;14047;50.936;4.654;2023-07-29T05:23:21;19.40;99.90
26336;DHT22;14047;50.936;4.654;2023-07-29T05:25:47;19.50;99.90
26336;DHT22;14047;50.936;4.654;2023-07-29T05:28:13;19.60;99.90
26336;DHT22;14047;50.936;4.654;2023-07-29T05:30:39;19.70;99.90
26336;DHT22;14047;50.936;4.654;2023-07-29T05:33:06;19.80;99.90
26336;DHT22;14047;50.936;4.654;2023-07-29T05:35:35;19.90;99.90
26336;DHT22;14047;50.936;4.654;2023-07-29T05:38:01;20.00;99.90
26336;DHT22;14047;50.936;4.654;2023-07-29T05:40:29;19.80;99.90
26336;DHT22;14047;50.936;4.654;2023-07-29T05:42:55;19.90;99.90
26336;DHT22;14047;50.936;4.654;2023-07-29T05:45:22;19.90;99.90
26336;DHT22;14047;50.936;4.654;2023-07-29T05:47:48;19.80;99.90
26336;DHT22;14047;50.936;4.654;2023-07-29T05:50:14;19.70;99.90
26336;DHT22;14047;50.936;4.654;2023-07-29T05:52:40;19.70;99.90
26336;DHT22;14047;50.936;4.654;2023-07-29T05:55:06;19.90;99.90
26336;DHT22;14047;50.936;4.654;2023-07-29T05:57:32;19.80;99.90
26336;DHT22;14047;50.936;4.654;2023-07-29T05:59:58;19.90;99.90
26336;DHT22;14047;50.936;4.654;2023-07-29T06:02:24;20.00;99.90
26336;DHT22;14047;50.936;4.654;2023-07-29T06:04:51;19.90;99.90
26336;DHT22;14047;50.936;4.654;2023-07-29T06:07:17;19.90;99.90
26336;DHT22;14047;50.936;4.654;2023-07-29T06:09:43;20.10;99.90
26336;DHT22;14047;50.936;4.654;2023-07-29T06:12:09;20.10;99.90
26336;DHT22;14047;50.936;4.654;2023-07-29T06:14:35;20.10;99.90
26336;DHT22;14047;50.936;4.654;2023-07-29T06:17:01;20.20;99.90
26336;DHT22;14047;50.936;4.654;2023-07-29T06:19:27;20.50;99.90
26336;DHT22;14047;50.936;4.654;2023-07-29T06:21:55;20.60;99.90
26336;DHT22;14047;50.936;4.654;2023-07-29T06:24:21;20.80;99.90
26336;DHT22;14047;50.936;4.654;2023-07-29T06:26:47;20.90;99.90
26336;DHT22;14047;50.936;4.654;2023-07-29T06:29:13;20.90;99.90
26336;DHT22;14047;50.936;4.654;2023-07-29T06:31:39;21.00;99.90
26336;DHT22;14047;50.936;4.654;2023-07-29T06:34:05;21.10;99.90
26336;DHT22;14047;50.936;4.654;2023-07-29T06:36:31;21.20;99.90
26336;DHT22;14047;50.936;4.654;2023-07-29T06:38:57;21.30;99.90
26336;DHT22;14047;50.936;4.654;2023-07-29T06:41:23;21.30;99.90
26336;DHT22;14047;50.936;4.654;2023-07-29T06:43:49;21.20;99.90
26336;DHT22;14047;50.936;4.654;2023-07-29T06:46:15;21.10;99.90
26336;DHT22;14047;50.936;4.654;2023-07-29T06:48:41;20.70;99.90
26336;DHT22;14047;50.936;4.654;2023-07-29T06:51:07;20.70;99.90
26336;DHT22;14047;50.936;4.654;2023-07-29T06:53:33;20.80;99.90
26336;DHT22;14047;50.936;4.654;2023-07-29T06:55:59;21.00;99.90
26336;DHT22;14047;50.936;4.654;2023-07-29T06:58:25;21.10;99.90
26336;DHT22;14047;50.936;4.654;2023-07-29T07:00:51;21.40;99.90
26336;DHT22;14047;50.936;4.654;2023-07-29T07:03:17;21.30;99.90
26336;DHT22;14047;50.936;4.654;2023-07-29T07:05:43;21.50;99.90
26336;DHT22;14047;50.936;4.654;2023-07-29T07:08:09;21.60;99.90
26336;DHT22;14047;50.936;4.654;2023-07-29T07:10:35;21.50;99.90
26336;DHT22;14047;50.936;4.654;2023-07-29T07:13:01;21.30;99.90
26336;DHT22;14047;50.936;4.654;2023-07-29T07:15:27;21.40;99.90
26336;DHT22;14047;50.936;4.654;2023-07-29T07:17:52;21.40;99.90
26336;DHT22;14047;50.936;4.654;2023-07-29T07:20:18;21.60;99.90
26336;DHT22;14047;50.936;4.654;2023-07-29T07:22:44;21.80;99.90
26336;DHT22;14047;50.936;4.654;2023-07-29T07:25:10;21.90;99.90
26336;DHT22;14047;50.936;4.654;2023-07-29T07:27:37;21.70;99.90
26336;DHT22;14047;50.936;4.654;2023-07-29T07:30:04;21.60;99.90
26336;DHT22;14047;50.936;4.654;2023-07-29T07:32:30;21.50;99.90
26336;DHT22;14047;50.936;4.654;2023-07-29T07:34:56;21.40;99.90
26336;DHT22;14047;50.936;4.654;2023-07-29T07:37:22;21.60;99.90
26336;DHT22;14047;50.936;4.654;2023-07-29T07:39:48;21.40;99.90
26336;DHT22;14047;50.936;4.654;2023-07-29T07:42:14;21.20;99.90
26336;DHT22;14047;50.936;4.654;2023-07-29T07:44:40;21.00;99.90
26336;DHT22;14047;50.936;4.654;2023-07-29T07:47:06;21.00;99.90
26336;DHT22;14047;50.936;4.654;2023-07-29T07:49:31;21.00;99.90
26336;DHT22;14047;50.936;4.654;2023-07-29T07:51:57;20.90;99.90
26336;DHT22;14047;50.936;4.654;2023-07-29T07:54:23;20.80;99.90
26336;DHT22;14047;50.936;4.654;2023-07-29T07:56:49;20.90;99.90
26336;DHT22;14047;50.936;4.654;2023-07-29T07:59:15;20.90;99.90
26336;DHT22;14047;50.936;4.654;2023-07-29T08:01:41;21.00;99.90
26336;DHT22;14047;50.936;4.654;2023-07-29T08:04:07;21.30;99.90
26336;DHT22;14047;50.936;4.654;2023-07-29T08:06:33;21.60;99.90
26336;DHT22;14047;50.936;4.654;2023-07-29T08:08:59;22.00;99.90
26336;DHT22;14047;50.936;4.654;2023-07-29T08:11:25;22.00;99.90
26336;DHT22;14047;50.936;4.654;2023-07-29T08:13:51;22.00;99.90
26336;DHT22;14047;50.936;4.654;2023-07-29T08:16:17;22.30;99.90
26336;DHT22;14047;50.936;4.654;2023-07-29T08:18:43;22.70;99.90
26336;DHT22;14047;50.936;4.654;2023-07-29T08:21:10;23.00;99.90
26336;DHT22;14047;50.936;4.654;2023-07-29T08:23:36;23.20;99.90
26336;DHT22;14047;50.936;4.654;2023-07-29T08:26:04;22.90;99.90
26336;DHT22;14047;50.936;4.654;2023-07-29T08:28:36;22.70;99.90
26336;DHT22;14047;50.936;4.654;2023-07-29T08:31:02;22.50;99.90
26336;DHT22;14047;50.936;4.654;2023-07-29T08:33:29;22.10;99.90
26336;DHT22;14047;50.936;4.654;2023-07-29T08:35:55;22.00;99.90
26336;DHT22;14047;50.936;4.654;2023-07-29T08:38:21;22.10;99.90
26336;DHT22;14047;50.936;4.654;2023-07-29T08:43:20;22.60;99.90
26336;DHT22;14047;50.936;4.654;2023-07-29T08:45:51;22.90;99.90
26336;DHT22;14047;50.936;4.654;2023-07-29T08:48:23;23.10;99.90
26336;DHT22;14047;50.936;4.654;2023-07-29T08:50:52;23.20;99.90
26336;DHT22;14047;50.936;4.654;2023-07-29T08:53:19;23.30;99.90
26336;DHT22;14047;50.936;4.654;2023-07-29T08:55:45;23.30;99.90
26336;DHT22;14047;50.936;4.654;2023-07-29T08:58:12;23.20;99.90
26336;DHT22;14047;50.936;4.654;2023-07-29T09:00:38;23.00;99.90
26336;DHT22;14047;50.936;4.654;2023-07-29T09:03:04;22.80;99.90
26336;DHT22;14047;50.936;4.654;2023-07-29T09:05:35;22.90;99.90
26336;DHT22;14047;50.936;4.654;2023-07-29T09:08:02;23.00;99.90
26336;DHT22;14047;50.936;4.654;2023-07-29T09:10:29;23.00;99.90
26336;DHT22;14047;50.936;4.654;2023-07-29T09:12:55;23.10;99.90
26336;DHT22;14047;50.936;4.654;2023-07-29T09:15:28;23.50;99.90
26336;DHT22;14047;50.936;4.654;2023-07-29T09:17:56;23.90;99.90
26336;DHT22;14047;50.936;4.654;2023-07-29T09:20:29;24.20;99.90
26336;DHT22;14047;50.936;4.654;2023-07-29T09:22:58;24.40;99.90
26336;DHT22;14047;50.936;4.654;2023-07-29T09:25:26;24.20;99.90
26336;DHT22;14047;50.936;4.654;2023-07-29T09:27:52;24.20;99.90
26336;DHT22;14047;50.936;4.654;2023-07-29T09:30:18;24.50;99.90
26336;DHT22;14047;50.936;4.654;2023-07-29T09:32:52;24.60;99.90
26336;DHT22;14047;50.936;4.654;2023-07-29T09:35:18;24.50;99.90
26336;DHT22;14047;50.936;4.654;2023-07-29T09:37:44;24.50;99.90
26336;DHT22;14047;50.936;4.654;2023-07-29T09:40:14;24.60;99.90
26336;DHT22;14047;50.936;4.654;2023-07-29T09:45:23;24.30;99.90
26336;DHT22;14047;50.936;4.654;2023-07-29T09:47:50;24.10;99.90
26336;DHT22;14047;50.936;4.654;2023-07-29T09:50:16;23.90;99.90
26336;DHT22;14047;50.936;4.654;2023-07-29T09:52:43;24.00;99.90
26336;DHT22;14047;50.936;4.654;2023-07-29T09:55:16;24.10;99.90
26336;DHT22;14047;50.936;4.654;2023-07-29T09:57:43;24.20;99.90
26336;DHT22;14047;50.936;4.654;2023-07-29T10:00:11;24.20;99.90
26336;DHT22;14047;50.936;4.654;2023-07-29T10:02:42;23.90;99.90
26336;DHT22;14047;50.936;4.654;2023-07-29T10:05:09;23.90;99.90
26336;DHT22;14047;50.936;4.654;2023-07-29T10:07:39;23.80;99.90
26336;DHT22;14047;50.936;4.654;2023-07-29T10:10:07;23.60;99.90
26336;DHT22;14047;50.936;4.654;2023-07-29T10:12:34;23.60;99.90
26336;DHT22;14047;50.936;4.654;2023-07-29T10:15:05;23.50;99.90
26336;DHT22;14047;50.936;4.654;2023-07-29T10:17:36;23.60;99.90
26336;DHT22;14047;50.936;4.654;2023-07-29T10:20:08;24.20;99.90
26336;DHT22;14047;50.936;4.654;2023-07-29T10:22:47;24.90;99.90
26336;DHT22;14047;50.936;4.654;2023-07-29T10:25:15;25.60;99.90
26336;DHT22;14047;50.936;4.654;2023-07-29T10:27:55;25.90;99.90
26336;DHT22;14047;50.936;4.654;2023-07-29T10:30:21;26.20;99.90
26336;DHT22;14047;50.936;4.654;2023-07-29T10:32:49;26.10;99.90
26336;DHT22;14047;50.936;4.654;2023-07-29T10:35:16;26.10;99.90
26336;DHT22;14047;50.936;4.654;2023-07-29T10:37:42;26.10;99.90
26336;DHT22;14047;50.936;4.654;2023-07-29T10:40:10;26.10;99.90
26336;DHT22;14047;50.936;4.654;2023-07-29T10:42:38;26.20;99.90
26336;DHT22;14047;50.936;4.654;2023-07-29T10:45:20;26.50;99.90
26336;DHT22;14047;50.936;4.654;2023-07-29T10:47:47;26.10;99.90
26336;DHT22;14047;50.936;4.654;2023-07-29T10:50:20;26.40;99.90
26336;DHT22;14047;50.936;4.654;2023-07-29T10:52:51;26.60;99.90
26336;DHT22;14047;50.936;4.654;2023-07-29T10:55:27;26.50;99.90
26336;DHT22;14047;50.936;4.654;2023-07-29T10:58:13;26.40;99.90
26336;DHT22;14047;50.936;4.654;2023-07-29T11:00:44;26.30;99.90
26336;DHT22;14047;50.936;4.654;2023-07-29T11:03:12;26.00;99.90
26336;DHT22;14047;50.936;4.654;2023-07-29T11:05:47;25.50;99.90
26336;DHT22;14047;50.936;4.654;2023-07-29T11:08:28;25.00;99.90
26336;DHT22;14047;50.936;4.654;2023-07-29T11:10:59;23.90;99.90
26336;DHT22;14047;50.936;4.654;2023-07-29T11:13:27;23.10;99.90
26336;DHT22;14047;50.936;4.654;2023-07-29T11:15:54;23.00;99.90
26336;DHT22;14047;50.936;4.654;2023-07-29T11:18:22;23.00;99.90
26336;DHT22;14047;50.936;4.654;2023-07-29T11:20:48;23.20;99.90
26336;DHT22;14047;50.936;4.654;2023-07-29T11:23:15;23.50;99.90
26336;DHT22;14047;50.936;4.654;2023-07-29T11:25:40;23.70;99.90
26336;DHT22;14047;50.936;4.654;2023-07-29T11:28:06;24.00;99.90
26336;DHT22;14047;50.936;4.654;2023-07-29T11:30:32;24.30;99.90
26336;DHT22;14047;50.936;4.654;2023-07-29T11:32:59;24.10;99.90
26336;DHT22;14047;50.936;4.654;2023-07-29T11:35:25;23.80;99.90
26336;DHT22;14047;50.936;4.654;2023-07-29T11:37:53;23.60;99.90
26336;DHT22;14047;50.936;4.654;2023-07-29T11:40:21;23.30;99.90
26336;DHT22;14047;50.936;4.654;2023-07-29T11:42:49;23.50;99.90
26336;DHT22;14047;50.936;4.654;2023-07-29T11:45:16;23.40;99.90
26336;DHT22;14047;50.936;4.654;2023-07-29T11:47:42;23.40;99.90
26336;DHT22;14047;50.936;4.654;2023-07-29T11:50:10;23.40;99.90
26336;DHT22;14047;50.936;4.654;2023-07-29T11:52:37;23.50;99.90
26336;DHT22;14047;50.936;4.654;2023-07-29T11:55:05;23.70;99.90
26336;DHT22;14047;50.936;4.654;2023-07-29T11:57:34;23.90;99.90
26336;DHT22;14047;50.936;4.654;2023-07-29T12:00:05;23.90;99.90
26336;DHT22;14047;50.936;4.654;2023-07-29T12:02:37;23.70;99.90
26336;DHT22;14047;50.936;4.654;2023-07-29T12:05:04;23.50;99.90
26336;DHT22;14047;50.936;4.654;2023-07-29T12:07:31;23.60;99.90
26336;DHT22;14047;50.936;4.654;2023-07-29T12:09:59;23.70;99.90
26336;DHT22;14047;50.936;4.654;2023-07-29T12:12:25;23.80;99.90
26336;DHT22;14047;50.936;4.654;2023-07-29T12:14:53;24.10;99.90
26336;DHT22;14047;50.936;4.654;2023-07-29T12:17:19;24.50;99.90
26336;DHT22;14047;50.936;4.654;2023-07-29T12:19:45;24.40;99.90
26336;DHT22;14047;50.936;4.654;2023-07-29T12:22:11;24.10;99.90
26336;DHT22;14047;50.936;4.654;2023-07-29T12:24:39;24.10;99.90
26336;DHT22;14047;50.936;4.654;2023-07-29T12:27:14;24.10;99.90
26336;DHT22;14047;50.936;4.654;2023-07-29T12:29:44;24.20;99.90
26336;DHT22;14047;50.936;4.654;2023-07-29T12:32:12;23.90;99.90
26336;DHT22;14047;50.936;4.654;2023-07-29T12:34:39;23.30;99.90
26336;DHT22;14047;50.936;4.654;2023-07-29T12:37:06;22.70;99.90
26336;DHT22;14047;50.936;4.654;2023-07-29T12:39:34;22.10;99.90
26336;DHT22;14047;50.936;4.654;2023-07-29T12:42:01;21.40;99.90
26336;DHT22;14047;50.936;4.654;2023-07-29T12:44:32;20.90;99.90
26336;DHT22;14047;50.936;4.654;2023-07-29T12:46:59;20.60;99.90
26336;DHT22;14047;50.936;4.654;2023-07-29T12:49:25;20.30;99.90
26336;DHT22;14047;50.936;4.654;2023-07-29T12:51:51;20.40;99.90
26336;DHT22;14047;50.936;4.654;2023-07-29T12:54:17;20.40;99.90
26336;DHT22;14047;50.936;4.654;2023-07-29T12:56:42;20.50;99.90
26336;DHT22;14047;50.936;4.654;2023-07-29T12:59:08;20.70;99.90
26336;DHT22;14047;50.936;4.654;2023-07-29T13:01:34;21.10;99.90
26336;DHT22;14047;50.936;4.654;2023-07-29T13:04:00;21.70;99.90
26336;DHT22;14047;50.936;4.654;2023-07-29T13:06:26;22.10;99.90
26336;DHT22;14047;50.936;4.654;2023-07-29T13:08:52;22.60;99.90
26336;DHT22;14047;50.936;4.654;2023-07-29T13:11:18;22.70;99.90
26336;DHT22;14047;50.936;4.654;2023-07-29T13:13:44;23.20;99.90
26336;DHT22;14047;50.936;4.654;2023-07-29T13:16:11;23.80;99.90
26336;DHT22;14047;50.936;4.654;2023-07-29T13:18:38;24.30;99.90
26336;DHT22;14047;50.936;4.654;2023-07-29T13:21:04;24.60;99.90
26336;DHT22;14047;50.936;4.654;2023-07-29T13:23:30;24.70;99.90
26336;DHT22;14047;50.936;4.654;2023-07-29T13:25:56;24.90;99.90
26336;DHT22;14047;50.936;4.654;2023-07-29T13:28:22;25.10;99.90
26336;DHT22;14047;50.936;4.654;2023-07-29T13:30:49;25.40;99.90
26336;DHT22;14047;50.936;4.654;2023-07-29T13:33:15;25.60;99.90
26336;DHT22;14047;50.936;4.654;2023-07-29T13:35:41;25.90;99.90
26336;DHT22;14047;50.936;4.654;2023-07-29T13:38:07;26.40;99.90
26336;DHT22;14047;50.936;4.654;2023-07-29T13:40:34;26.20;99.90
26336;DHT22;14047;50.936;4.654;2023-07-29T13:43:00;25.40;99.90
26336;DHT22;14047;50.936;4.654;2023-07-29T13:45:26;25.50;99.90
26336;DHT22;14047;50.936;4.654;2023-07-29T13:47:52;25.40;99.90
26336;DHT22;14047;50.936;4.654;2023-07-29T13:50:18;25.40;99.90
26336;DHT22;14047;50.936;4.654;2023-07-29T13:52:44;25.50;99.90
26336;DHT22;14047;50.936;4.654;2023-07-29T13:55:10;25.30;99.90
26336;DHT22;14047;50.936;4.654;2023-07-29T13:57:37;25.30;99.90
26336;DHT22;14047;50.936;4.654;2023-07-29T14:00:05;25.00;99.90
26336;DHT22;14047;50.936;4.654;2023-07-29T14:02:37;24.70;99.90
26336;DHT22;14047;50.936;4.654;2023-07-29T14:05:03;24.60;99.90
26336;DHT22;14047;50.936;4.654;2023-07-29T14:07:29;25.10;99.90
26336;DHT22;14047;50.936;4.654;2023-07-29T14:09:55;25.10;99.90
26336;DHT22;14047;50.936;4.654;2023-07-29T14:12:21;25.30;99.90
26336;DHT22;14047;50.936;4.654;2023-07-29T14:14:47;25.50;99.90
26336;DHT22;14047;50.936;4.654;2023-07-29T14:17:13;25.50;99.90
26336;DHT22;14047;50.936;4.654;2023-07-29T14:19:39;25.40;99.90
26336;DHT22;14047;50.936;4.654;2023-07-29T14:22:05;25.40;99.90
26336;DHT22;14047;50.936;4.654;2023-07-29T14:24:31;25.20;99.90
26336;DHT22;14047;50.936;4.654;2023-07-29T14:26:57;25.00;99.90
26336;DHT22;14047;50.936;4.654;2023-07-29T14:29:23;24.80;99.90
26336;DHT22;14047;50.936;4.654;2023-07-29T14:31:49;24.60;99.90
26336;DHT22;14047;50.936;4.654;2023-07-29T14:34:15;24.50;99.90
26336;DHT22;14047;50.936;4.654;2023-07-29T14:36:41;24.40;99.90
26336;DHT22;14047;50.936;4.654;2023-07-29T14:39:07;24.70;99.90
26336;DHT22;14047;50.936;4.654;2023-07-29T14:41:33;25.70;99.90
26336;DHT22;14047;50.936;4.654;2023-07-29T14:44:00;26.30;99.90
26336;DHT22;14047;50.936;4.654;2023-07-29T14:46:26;26.80;99.90
26336;DHT22;14047;50.936;4.654;2023-07-29T14:48:52;26.90;99.90
26336;DHT22;14047;50.936;4.654;2023-07-29T14:51:18;27.10;99.90
26336;DHT22;14047;50.936;4.654;2023-07-29T14:53:44;26.70;99.90
26336;DHT22;14047;50.936;4.654;2023-07-29T14:56:10;26.90;99.90
26336;DHT22;14047;50.936;4.654;2023-07-29T14:58:36;27.00;99.90
26336;DHT22;14047;50.936;4.654;2023-07-29T15:01:02;26.60;99.90
26336;DHT22;14047;50.936;4.654;2023-07-29T15:03:28;26.10;99.90
26336;DHT22;14047;50.936;4.654;2023-07-29T15:05:54;26.10;99.90
26336;DHT22;14047;50.936;4.654;2023-07-29T15:08:20;26.20;99.90
26336;DHT22;14047;50.936;4.654;2023-07-29T15:10:47;26.40;99.90
26336;DHT22;14047;50.936;4.654;2023-07-29T15:13:13;26.00;99.90
26336;DHT22;14047;50.936;4.654;2023-07-29T15:15:43;25.60;99.90
26336;DHT22;14047;50.936;4.654;2023-07-29T15:18:10;25.00;99.90
26336;DHT22;14047;50.936;4.654;2023-07-29T15:20:36;24.90;99.90
26336;DHT22;14047;50.936;4.654;2023-07-29T15:23:02;24.60;99.90
26336;DHT22;14047;50.936;4.654;2023-07-29T15:25:28;24.90;99.90
26336;DHT22;14047;50.936;4.654;2023-07-29T15:27:53;24.90;99.90
26336;DHT22;14047;50.936;4.654;2023-07-29T15:30:19;25.30;99.90
26336;DHT22;14047;50.936;4.654;2023-07-29T15:32:45;25.70;99.90
26336;DHT22;14047;50.936;4.654;2023-07-29T15:35:11;25.80;99.90